Terminal Aerodrome Forecast
Issued by NWS

Home | Current Version | Previous Version | Text Only | Print | Product List | Glossary On
Versions: 1 2 3 4 5 6 7 8 9 10 11 12 13 14 15 16 17 18 19 20 21 22
829
FTUS41 KBTV 242331
TAFMPV
TAF
KMPV 242331Z 2500/2524 33006KT 5SM -FZRAPL BR SCT004 OVC015
      TEMPO 2500/2504 3SM -FZRAPL BR BKN004
     FM250400 32004KT P6SM VCSH SCT004 OVC008
     FM250700 VRB03KT P6SM VCSH OVC011
     FM251000 31005KT 6SM BR OVC015
     FM252100 30005KT P6SM SCT025=

USA.gov is the U.S. government's official web portal to all federal, state and local government web resources and services.